createdAt,value
2018-05-17T00:00:04.796Z,16.83
2018-05-17T00:02:32.332Z,16.91
2018-05-17T00:04:59.829Z,16.53
2018-05-17T00:07:27.339Z,16.68
2018-05-17T00:09:54.835Z,16.91
2018-05-17T00:12:22.329Z,17.08
2018-05-17T00:14:49.868Z,17.15
2018-05-17T00:17:17.372Z,17.24
2018-05-17T00:19:44.887Z,17.43
2018-05-17T00:22:12.392Z,17.24
2018-05-17T00:24:39.944Z,17.18
2018-05-17T00:27:07.457Z,17.13
2018-05-17T00:29:34.976Z,17.09
2018-05-17T00:32:02.490Z,17.12
2018-05-17T00:34:30.004Z,17.21
2018-05-17T00:36:57.515Z,17.08
2018-05-17T00:39:25.048Z,17.05
2018-05-17T00:41:52.569Z,17.20
2018-05-17T00:44:20.071Z,17.40
2018-05-17T00:46:47.846Z,17.52
2018-05-17T00:49:15.799Z,17.26
2018-05-17T00:51:43.298Z,17.09
2018-05-17T00:54:10.864Z,17.02
2018-05-17T00:56:38.401Z,17.10
2018-05-17T00:59:06.197Z,17.28
2018-05-17T01:01:33.734Z,17.22
2018-05-17T01:04:01.363Z,17.21
2018-05-17T01:06:28.899Z,17.30
2018-05-17T01:08:56.415Z,17.39
2018-05-17T01:11:23.924Z,17.39
2018-05-17T01:13:51.743Z,17.32
2018-05-17T01:16:19.287Z,17.32
2018-05-17T01:18:46.790Z,17.42
2018-05-17T01:21:14.310Z,17.48
2018-05-17T01:23:41.815Z,17.11
2018-05-17T01:26:09.371Z,16.85
2018-05-17T01:28:36.889Z,17.13
2018-05-17T01:31:04.444Z,17.18
2018-05-17T01:33:31.947Z,17.30
2018-05-17T01:35:59.486Z,16.96
2018-05-17T01:38:27.013Z,17.07
2018-05-17T01:40:54.604Z,17.20
2018-05-17T01:43:22.121Z,17.23
2018-05-17T01:45:49.680Z,17.24
2018-05-17T01:48:17.182Z,17.15
2018-05-17T01:50:44.699Z,16.72
2018-05-17T01:53:12.197Z,16.68
2018-05-17T01:55:39.702Z,16.90
2018-05-17T01:58:07.259Z,17.00
2018-05-17T02:00:34.823Z,16.73
2018-05-17T02:03:02.338Z,16.45
2018-05-17T02:05:29.840Z,16.52
2018-05-17T02:07:57.708Z,16.45
2018-05-17T02:10:25.214Z,16.47
2018-05-17T02:12:52.778Z,16.38
2018-05-17T02:15:20.342Z,16.48
2018-05-17T02:17:47.846Z,16.32
2018-05-17T02:20:15.378Z,16.39
2018-05-17T02:22:42.883Z,16.01
2018-05-17T02:25:10.395Z,15.87
2018-05-17T02:27:37.950Z,15.84
2018-05-17T02:30:05.500Z,15.85
2018-05-17T02:32:33.131Z,15.75
2018-05-17T02:35:01.273Z,15.63
2018-05-17T02:37:28.807Z,15.88
2018-05-17T02:39:56.335Z,16.19
2018-05-17T02:42:23.879Z,16.18
2018-05-17T02:44:51.425Z,16.18
2018-05-17T02:47:18.953Z,16.05
2018-05-17T02:49:46.519Z,15.80
2018-05-17T02:52:14.065Z,15.63
2018-05-17T02:54:41.622Z,15.56
2018-05-17T02:57:09.128Z,15.51
2018-05-17T02:59:36.639Z,15.60
2018-05-17T03:02:04.160Z,15.56
2018-05-17T03:04:31.708Z,15.72
2018-05-17T03:06:59.212Z,15.61
2018-05-17T03:09:26.771Z,15.71
2018-05-17T03:11:54.273Z,15.82
2018-05-17T03:14:21.772Z,15.72
2018-05-17T03:16:49.287Z,15.51
2018-05-17T03:19:16.792Z,15.60
2018-05-17T03:21:44.311Z,15.59
2018-05-17T03:24:11.807Z,15.81
2018-05-17T03:26:39.322Z,15.73
2018-05-17T03:29:06.822Z,15.73
2018-05-17T03:31:34.345Z,15.74
2018-05-17T03:34:01.895Z,15.74
2018-05-17T03:36:29.405Z,15.76
2018-05-17T03:38:56.915Z,15.74
2018-05-17T03:41:24.441Z,15.81
2018-05-17T03:43:51.956Z,15.88
2018-05-17T03:46:19.499Z,15.67
2018-05-17T03:48:47.008Z,15.67
2018-05-17T03:51:14.575Z,15.93
2018-05-17T03:53:42.083Z,16.02
2018-05-17T03:56:09.852Z,16.42
2018-05-17T03:58:37.360Z,16.77
2018-05-17T04:01:16.798Z,16.83
2018-05-17T04:06:51.503Z,16.84
2018-05-17T04:09:19.009Z,16.96
2018-05-17T04:11:46.570Z,16.69
2018-05-17T04:14:14.067Z,16.71
2018-05-17T04:16:41.604Z,16.63
2018-05-17T04:19:09.264Z,16.63
2018-05-17T04:21:36.803Z,16.63
2018-05-17T04:24:04.318Z,16.78
2018-05-17T04:26:31.867Z,16.53
2018-05-17T04:28:59.408Z,16.61
2018-05-17T04:31:26.919Z,16.47
2018-05-17T04:33:54.431Z,16.30
2018-05-17T04:36:21.938Z,16.46
2018-05-17T04:38:49.455Z,16.99
2018-05-17T04:41:16.965Z,17.56
2018-05-17T04:43:44.764Z,17.76
2018-05-17T04:46:12.281Z,18.04
2018-05-17T04:48:39.839Z,17.90
2018-05-17T04:51:07.367Z,17.71
2018-05-17T04:53:34.902Z,17.94
2018-05-17T04:56:02.458Z,17.99
2018-05-17T04:58:29.971Z,18.35
2018-05-17T05:00:57.491Z,18.67
2018-05-17T05:03:25.140Z,18.28
2018-05-17T05:05:52.754Z,18.26
2018-05-17T05:08:20.280Z,18.61
2018-05-17T05:10:47.818Z,18.66
2018-05-17T05:13:15.323Z,18.77
2018-05-17T05:15:42.835Z,19.85
2018-05-17T05:18:10.332Z,19.15
2018-05-17T05:20:38.142Z,18.91
2018-05-17T05:23:05.693Z,18.48
2018-05-17T05:25:33.294Z,18.36
2018-05-17T05:28:01.146Z,18.49
2018-05-17T05:30:28.737Z,19.23
2018-05-17T05:32:56.274Z,19.59
2018-05-17T05:35:23.813Z,19.38
2018-05-17T05:37:51.359Z,19.09
2018-05-17T05:40:18.868Z,19.05
2018-05-17T05:42:47.407Z,20.74
2018-05-17T05:45:14.939Z,21.47
2018-05-17T05:47:42.454Z,22.09
2018-05-17T05:50:09.966Z,22.85
2018-05-17T05:52:37.791Z,23.20
2018-05-17T05:55:05.391Z,23.75
2018-05-17T05:57:32.946Z,23.83
2018-05-17T06:00:00.495Z,24.16
2018-05-17T06:02:28.106Z,24.10
2018-05-17T06:04:55.589Z,25.32
2018-05-17T06:07:23.101Z,25.19
2018-05-17T06:09:50.643Z,25.65
2018-05-17T06:12:18.479Z,24.53
2018-05-17T06:14:45.991Z,25.21
2018-05-17T06:17:13.527Z,25.07
2018-05-17T06:19:41.687Z,25.96
2018-05-17T06:22:09.209Z,26.43
2018-05-17T06:24:36.738Z,26.83
2018-05-17T06:27:04.294Z,26.78
2018-05-17T06:29:31.849Z,26.75
2018-05-17T06:31:59.719Z,27.84
2018-05-17T06:34:27.452Z,28.52
2018-05-17T06:36:54.969Z,28.59
2018-05-17T06:39:22.532Z,29.77
2018-05-17T06:41:50.059Z,29.14
2018-05-17T06:44:18.536Z,29.50
2018-05-17T06:46:46.054Z,28.88
2018-05-17T06:49:13.564Z,27.98
2018-05-17T06:51:41.075Z,27.59
2018-05-17T06:54:08.588Z,27.91
2018-05-17T06:56:36.098Z,28.78
2018-05-17T06:59:03.628Z,28.72
2018-05-17T07:01:31.147Z,29.03
2018-05-17T07:03:58.662Z,29.85
2018-05-17T07:06:26.540Z,29.59
2018-05-17T07:08:54.075Z,29.17
2018-05-17T07:11:21.629Z,27.83
2018-05-17T07:13:49.168Z,28.32
2018-05-17T07:16:16.679Z,29.05
2018-05-17T07:18:44.469Z,28.25
2018-05-17T07:21:11.756Z,27.67
2018-05-17T07:23:39.264Z,29.38
2018-05-17T07:26:06.776Z,29.51
2018-05-17T07:28:34.331Z,28.65
2018-05-17T07:31:01.852Z,28.08
2018-05-17T07:33:29.411Z,28.50
2018-05-17T07:35:57.010Z,29.02
2018-05-17T07:38:24.491Z,29.23
2018-05-17T07:40:52.032Z,29.50
2018-05-17T07:43:19.532Z,29.51
2018-05-17T07:45:47.380Z,29.53
2018-05-17T07:48:14.908Z,28.19
2018-05-17T07:50:42.647Z,28.46
2018-05-17T07:53:10.163Z,29.04
2018-05-17T07:55:37.714Z,27.59
2018-05-17T07:58:05.227Z,28.12
2018-05-17T08:00:32.738Z,28.73
2018-05-17T08:03:00.251Z,29.77
2018-05-17T08:05:27.791Z,31.08
2018-05-17T08:07:55.299Z,31.27
2018-05-17T08:10:22.807Z,30.35
2018-05-17T08:12:50.339Z,30.70
2018-05-17T08:15:17.885Z,29.74
2018-05-17T08:17:45.423Z,29.71
2018-05-17T08:20:12.924Z,30.09
2018-05-17T08:22:40.428Z,30.63
2018-05-17T08:25:08.251Z,30.32
2018-05-17T08:27:35.794Z,30.89
2018-05-17T08:30:05.105Z,30.77
2018-05-17T08:32:32.623Z,31.20
2018-05-17T08:35:00.123Z,30.87
2018-05-17T08:37:27.626Z,29.46
2018-05-17T08:39:55.149Z,29.42
2018-05-17T08:42:22.769Z,30.33
2018-05-17T08:44:50.304Z,31.18
2018-05-17T08:47:17.818Z,30.07
2018-05-17T08:49:45.488Z,30.01
2018-05-17T08:52:13.042Z,31.03
2018-05-17T08:54:40.555Z,30.68
2018-05-17T08:57:08.112Z,30.61
2018-05-17T08:59:35.686Z,30.46
2018-05-17T09:02:03.169Z,30.89
2018-05-17T09:04:30.688Z,30.54
2018-05-17T09:06:58.504Z,31.60
2018-05-17T09:09:26.022Z,32.12
2018-05-17T09:11:53.542Z,30.64
2018-05-17T09:14:21.070Z,29.22
2018-05-17T09:16:48.605Z,29.84
2018-05-17T09:19:16.109Z,30.72
2018-05-17T09:21:43.617Z,29.47
2018-05-17T09:24:11.132Z,30.18
2018-05-17T09:26:38.638Z,29.35
2018-05-17T09:29:06.179Z,29.30
2018-05-17T09:31:33.699Z,30.44
2018-05-17T09:34:01.255Z,30.92
2018-05-17T09:36:28.784Z,30.27
2018-05-17T09:38:56.334Z,30.66
2018-05-17T09:41:23.959Z,31.06
2018-05-17T09:43:51.393Z,28.17
2018-05-17T09:46:18.896Z,27.88
2018-05-17T09:48:46.437Z,28.94
2018-05-17T09:51:14.034Z,30.90
2018-05-17T09:53:41.534Z,30.08
2018-05-17T09:56:09.047Z,29.98
2018-05-17T09:58:36.777Z,31.15
2018-05-17T10:01:04.287Z,31.61
2018-05-17T10:03:31.809Z,30.56
2018-05-17T10:05:59.327Z,32.33
2018-05-17T10:08:26.842Z,31.88
2018-05-17T10:10:54.371Z,29.44
2018-05-17T10:13:21.883Z,30.82
2018-05-17T10:15:49.431Z,30.64
2018-05-17T10:18:16.937Z,30.98
2018-05-17T10:20:44.482Z,31.81
2018-05-17T10:23:12.033Z,32.20
2018-05-17T10:25:39.565Z,31.96
2018-05-17T10:28:07.069Z,31.00
2018-05-17T10:30:34.615Z,32.65
2018-05-17T10:33:02.133Z,32.21
2018-05-17T10:35:29.659Z,31.58
2018-05-17T10:37:57.174Z,29.55
2018-05-17T10:40:24.684Z,29.98
2018-05-17T10:42:52.182Z,28.47
2018-05-17T10:45:19.724Z,28.95
2018-05-17T10:47:47.254Z,29.88
2018-05-17T10:50:14.797Z,30.32
2018-05-17T10:52:42.307Z,32.00
2018-05-17T10:55:09.821Z,31.73
2018-05-17T10:57:37.323Z,32.33
2018-05-17T11:00:06.580Z,32.27
2018-05-17T11:02:34.140Z,32.56
2018-05-17T11:05:01.724Z,32.10
2018-05-17T11:07:29.232Z,32.98
2018-05-17T11:09:56.748Z,32.49
2018-05-17T11:12:24.258Z,33.15
2018-05-17T11:14:51.767Z,31.53
2018-05-17T11:17:19.262Z,32.85
2018-05-17T11:19:46.772Z,33.40
2018-05-17T11:22:14.288Z,30.16
2018-05-17T11:24:41.795Z,30.52
2018-05-17T11:27:09.314Z,30.92
2018-05-17T11:29:36.822Z,30.68
2018-05-17T11:32:04.326Z,31.66
2018-05-17T11:34:31.847Z,30.59
2018-05-17T11:36:59.345Z,32.23
2018-05-17T11:39:26.847Z,31.59
2018-05-17T11:41:54.358Z,31.39
2018-05-17T11:44:21.879Z,31.53
2018-05-17T11:46:49.383Z,31.15
2018-05-17T11:49:16.897Z,30.55
2018-05-17T11:51:44.422Z,28.97
2018-05-17T11:54:11.932Z,29.13
2018-05-17T11:56:39.468Z,30.75
2018-05-17T11:59:06.971Z,30.89
2018-05-17T12:01:34.502Z,30.36
2018-05-17T12:04:02.049Z,31.32
2018-05-17T12:06:29.589Z,31.25
2018-05-17T12:08:57.128Z,29.87
2018-05-17T12:11:24.659Z,30.31
2018-05-17T12:13:52.167Z,29.27
2018-05-17T12:16:19.857Z,29.31
2018-05-17T12:18:47.363Z,29.72
2018-05-17T12:21:14.871Z,29.80
2018-05-17T12:23:42.408Z,29.06
2018-05-17T12:26:10.219Z,29.17
2018-05-17T12:28:37.728Z,29.43
2018-05-17T12:31:05.249Z,29.45
2018-05-17T12:33:32.785Z,29.33
2018-05-17T12:36:00.719Z,29.57
2018-05-17T12:38:28.226Z,28.93
2018-05-17T12:40:55.732Z,29.05
2018-05-17T12:43:23.255Z,28.79
2018-05-17T12:45:50.765Z,28.18
2018-05-17T12:48:18.271Z,27.72
2018-05-17T12:50:45.876Z,27.26
2018-05-17T12:53:13.300Z,27.63
2018-05-17T12:55:40.790Z,28.34
2018-05-17T12:58:08.289Z,28.78
2018-05-17T13:00:35.799Z,28.50
2018-05-17T13:03:03.327Z,28.20
2018-05-17T13:05:30.832Z,27.88
2018-05-17T13:07:58.339Z,27.33
2018-05-17T13:10:25.846Z,27.86
2018-05-17T13:12:53.383Z,29.18
2018-05-17T13:15:20.871Z,29.67
2018-05-17T13:17:48.453Z,29.90
2018-05-17T13:20:15.961Z,29.99
2018-05-17T13:22:43.525Z,28.51
2018-05-17T13:25:11.143Z,29.76
2018-05-17T13:27:38.728Z,27.82
2018-05-17T13:30:06.286Z,28.80
2018-05-17T13:32:33.807Z,31.63
2018-05-17T13:35:01.319Z,31.40
2018-05-17T13:37:29.091Z,31.90
2018-05-17T13:39:56.681Z,31.24
2018-05-17T13:42:24.184Z,27.84
2018-05-17T13:44:52.448Z,26.62
2018-05-17T13:47:19.984Z,26.48
2018-05-17T13:49:47.492Z,26.52
2018-05-17T13:52:15.055Z,26.29
2018-05-17T13:54:42.551Z,26.43
2018-05-17T13:57:10.061Z,26.18
2018-05-17T13:59:37.596Z,25.95
2018-05-17T14:02:05.120Z,25.99
2018-05-17T14:04:32.622Z,25.77
2018-05-17T14:07:00.173Z,25.73
2018-05-17T14:09:27.697Z,25.62
2018-05-17T14:11:55.226Z,25.67
2018-05-17T14:14:23.027Z,25.42
2018-05-17T14:16:50.539Z,25.65
2018-05-17T14:19:18.090Z,25.53
2018-05-17T14:21:45.607Z,25.19
2018-05-17T14:24:13.113Z,25.10
2018-05-17T14:26:40.632Z,25.22
2018-05-17T14:29:09.131Z,25.56
2018-05-17T14:31:36.935Z,25.38
2018-05-17T14:34:04.466Z,25.30
2018-05-17T14:36:32.041Z,25.44
2018-05-17T14:38:59.558Z,25.26
2018-05-17T14:41:27.067Z,25.15
2018-05-17T14:43:55.345Z,25.37
2018-05-17T14:46:22.889Z,25.43
2018-05-17T14:48:50.406Z,25.63
2018-05-17T14:51:17.891Z,25.55
2018-05-17T14:53:45.382Z,25.59
2018-05-17T14:56:12.884Z,25.54
2018-05-17T14:58:40.420Z,25.47
2018-05-17T15:01:07.928Z,25.62
2018-05-17T15:03:36.293Z,25.26
2018-05-17T15:06:03.837Z,25.18
2018-05-17T15:08:31.643Z,25.02
2018-05-17T15:10:59.344Z,25.05
2018-05-17T15:13:26.593Z,25.07
2018-05-17T15:15:54.582Z,25.11
2018-05-17T15:18:22.839Z,25.24
2018-05-17T15:20:50.622Z,25.29
2018-05-17T15:23:18.123Z,25.17
2018-05-17T15:25:45.629Z,25.30
2018-05-17T15:28:13.357Z,25.08
2018-05-17T15:30:40.867Z,24.92
2018-05-17T15:33:08.374Z,24.93
2018-05-17T15:35:35.951Z,24.81
2018-05-17T15:38:03.460Z,24.60
2018-05-17T15:40:30.979Z,24.63
2018-05-17T15:42:58.519Z,24.46
2018-05-17T15:45:26.025Z,24.56
2018-05-17T15:47:53.800Z,24.68
2018-05-17T15:50:21.325Z,24.80
2018-05-17T15:52:49.290Z,24.91
2018-05-17T15:55:16.854Z,24.80
2018-05-17T15:57:44.368Z,24.65
2018-05-17T16:00:12.770Z,24.73
2018-05-17T16:02:40.274Z,24.77
2018-05-17T16:05:07.853Z,24.81
2018-05-17T16:07:35.737Z,24.59
2018-05-17T16:10:03.257Z,24.72
2018-05-17T16:12:30.758Z,24.85
2018-05-17T16:14:58.636Z,24.59
2018-05-17T16:17:26.121Z,24.57
2018-05-17T16:19:53.635Z,24.59
2018-05-17T16:22:21.197Z,24.60
2018-05-17T16:24:48.757Z,24.40
2018-05-17T16:27:16.289Z,24.09
2018-05-17T16:29:43.853Z,23.96
2018-05-17T16:32:11.995Z,23.92
2018-05-17T16:34:39.664Z,23.79
2018-05-17T16:37:07.162Z,23.81
2018-05-17T16:39:34.879Z,23.60
2018-05-17T16:42:02.417Z,23.59
2018-05-17T16:44:29.928Z,23.55
2018-05-17T16:46:58.191Z,23.67
2018-05-17T16:49:25.682Z,23.76
2018-05-17T16:51:53.193Z,23.65
2018-05-17T16:54:21.012Z,23.65
2018-05-17T16:56:48.451Z,23.69
2018-05-17T16:59:16.196Z,23.70
2018-05-17T17:01:43.719Z,23.67
2018-05-17T17:04:11.275Z,23.60
2018-05-17T17:06:38.819Z,23.54
2018-05-17T17:09:07.133Z,23.56
2018-05-17T17:11:34.678Z,23.45
2018-05-17T17:14:02.353Z,23.38
2018-05-17T17:16:31.696Z,23.34
2018-05-17T17:18:59.381Z,23.27
2018-05-17T17:21:27.158Z,23.27
2018-05-17T17:23:54.792Z,23.29
2018-05-17T17:26:22.435Z,23.31
2018-05-17T17:28:50.054Z,23.30
2018-05-17T17:31:17.613Z,23.23
2018-05-17T17:33:45.192Z,23.21
2018-05-17T17:36:13.422Z,22.91
2018-05-17T17:38:41.000Z,22.38
2018-05-17T17:41:08.536Z,22.22
2018-05-17T17:43:36.168Z,22.00
2018-05-17T17:46:03.744Z,21.84
2018-05-17T17:48:31.437Z,21.75
2018-05-17T17:50:59.035Z,21.60
2018-05-17T17:53:26.539Z,21.54
2018-05-17T17:55:54.083Z,21.48
2018-05-17T17:58:21.718Z,21.51
2018-05-17T18:00:49.197Z,21.36
2018-05-17T18:03:16.763Z,21.27
2018-05-17T18:05:44.639Z,21.28
2018-05-17T18:08:12.139Z,21.11
2018-05-17T18:10:39.942Z,21.16
2018-05-17T18:13:07.472Z,20.81
2018-05-17T18:15:34.970Z,20.92
2018-05-17T18:18:02.699Z,20.93
2018-05-17T18:20:30.343Z,20.94
2018-05-17T18:22:57.828Z,20.94
2018-05-17T18:25:25.350Z,21.05
2018-05-17T18:27:52.873Z,21.02
2018-05-17T18:30:20.399Z,21.05
2018-05-17T18:32:47.911Z,21.04
2018-05-17T18:35:15.674Z,20.98
2018-05-17T18:37:44.064Z,20.91
2018-05-17T18:40:11.856Z,20.92
2018-05-17T18:42:39.355Z,20.75
2018-05-17T18:45:06.867Z,20.89
2018-05-17T18:47:34.366Z,20.84
2018-05-17T18:50:02.333Z,20.80
2018-05-17T18:52:30.834Z,20.72
2018-05-17T18:54:58.340Z,20.67
2018-05-17T18:57:25.848Z,20.68
2018-05-17T18:59:53.409Z,20.73
2018-05-17T19:02:21.027Z,20.70
2018-05-17T19:04:48.463Z,20.65
2018-05-17T19:07:16.242Z,20.70
2018-05-17T19:09:43.784Z,20.61
2018-05-17T19:12:11.297Z,20.69
2018-05-17T19:14:38.856Z,20.59
2018-05-17T19:17:06.359Z,20.59
2018-05-17T19:19:33.911Z,20.60
2018-05-17T19:22:02.346Z,20.54
2018-05-17T19:24:29.867Z,20.47
2018-05-17T19:26:57.678Z,20.51
2018-05-17T19:29:25.175Z,20.52
2018-05-17T19:31:53.012Z,20.52
2018-05-17T19:34:20.675Z,20.49
2018-05-17T19:36:48.232Z,20.42
2018-05-17T19:39:15.727Z,20.47
2018-05-17T19:41:43.316Z,20.39
2018-05-17T19:44:11.047Z,20.32
2018-05-17T19:46:38.589Z,20.21
2018-05-17T19:49:06.143Z,20.09
2018-05-17T19:51:33.647Z,20.03
2018-05-17T19:54:01.213Z,19.95
2018-05-17T19:56:28.718Z,19.98
2018-05-17T19:58:56.212Z,19.97
2018-05-17T20:01:23.715Z,19.96
2018-05-17T20:03:51.208Z,19.84
2018-05-17T20:06:18.721Z,19.87
2018-05-17T20:08:46.256Z,19.98
2018-05-17T20:11:13.840Z,19.78
2018-05-17T20:13:41.287Z,19.77
2018-05-17T20:16:08.826Z,19.63
2018-05-17T20:18:37.275Z,19.63
2018-05-17T20:21:04.762Z,19.61
2018-05-17T20:23:32.295Z,19.57
2018-05-17T20:26:00.618Z,19.58
2018-05-17T20:28:28.134Z,19.60
2018-05-17T20:30:55.660Z,19.76
2018-05-17T20:33:23.170Z,19.84
2018-05-17T20:35:50.672Z,19.89
2018-05-17T20:38:18.188Z,20.01
2018-05-17T20:40:45.731Z,20.04
2018-05-17T20:43:13.232Z,20.00
2018-05-17T20:45:40.771Z,19.93
2018-05-17T20:48:08.282Z,19.93
2018-05-17T20:50:35.785Z,19.90
2018-05-17T20:53:03.295Z,19.88
2018-05-17T20:55:30.840Z,19.83
2018-05-17T20:57:58.391Z,19.82
2018-05-17T21:00:25.908Z,19.75
2018-05-17T21:02:53.916Z,19.72
2018-05-17T21:05:21.478Z,19.59
2018-05-17T21:07:49.039Z,19.73
2018-05-17T21:10:16.555Z,19.80
2018-05-17T21:12:44.140Z,19.69
2018-05-17T21:15:11.576Z,19.66
2018-05-17T21:17:39.085Z,19.57
2018-05-17T21:20:06.599Z,19.66
2018-05-17T21:22:34.107Z,19.73
2018-05-17T21:25:01.621Z,19.74
2018-05-17T21:27:29.137Z,19.69
2018-05-17T21:29:56.631Z,19.64
2018-05-17T21:32:24.167Z,19.53
2018-05-17T21:34:51.687Z,19.49
2018-05-17T21:37:19.199Z,19.53
2018-05-17T21:39:46.742Z,19.55
2018-05-17T21:42:14.251Z,19.38
2018-05-17T21:44:41.817Z,19.14
2018-05-17T21:47:09.376Z,18.93
2018-05-17T21:49:36.871Z,19.10
2018-05-17T21:52:04.385Z,19.19
2018-05-17T21:54:31.891Z,19.08
2018-05-17T21:57:00.300Z,19.14
2018-05-17T21:59:27.826Z,19.16
2018-05-17T22:01:56.140Z,19.30
2018-05-17T22:04:24.162Z,19.17
2018-05-17T22:06:51.674Z,19.25
2018-05-17T22:09:19.195Z,19.18
2018-05-17T22:11:46.719Z,19.27
2018-05-17T22:14:14.247Z,19.22
2018-05-17T22:16:41.751Z,19.07
2018-05-17T22:19:09.264Z,19.11
2018-05-17T22:21:36.785Z,18.96
2018-05-17T22:24:04.315Z,18.61
2018-05-17T22:26:31.942Z,19.00
2018-05-17T22:28:59.444Z,18.98
2018-05-17T22:31:26.942Z,18.86
2018-05-17T22:33:54.459Z,18.90
2018-05-17T22:36:21.987Z,19.00
2018-05-17T22:38:49.507Z,18.90
2018-05-17T22:41:17.015Z,18.90
2018-05-17T22:43:44.526Z,18.57
2018-05-17T22:46:12.051Z,18.40
2018-05-17T22:48:39.574Z,18.37
2018-05-17T22:51:07.130Z,18.40
2018-05-17T22:53:34.631Z,18.57
2018-05-17T22:56:02.439Z,18.51
2018-05-17T22:58:33.771Z,18.18
2018-05-17T23:01:01.280Z,17.91
2018-05-17T23:03:28.797Z,17.91
2018-05-17T23:05:56.676Z,17.83
2018-05-17T23:08:24.187Z,17.93
2018-05-17T23:10:51.690Z,17.82
2018-05-17T23:13:19.248Z,17.78
2018-05-17T23:15:46.750Z,17.51
2018-05-17T23:18:14.255Z,17.63
2018-05-17T23:20:41.755Z,17.69
2018-05-17T23:23:09.258Z,17.68
2018-05-17T23:25:36.789Z,17.52
2018-05-17T23:28:04.299Z,17.53
2018-05-17T23:30:32.140Z,17.42
2018-05-17T23:32:59.667Z,17.47
2018-05-17T23:35:27.170Z,17.36
2018-05-17T23:37:54.671Z,17.34
2018-05-17T23:40:34.031Z,17.45
2018-05-17T23:43:01.529Z,17.48
2018-05-17T23:45:29.035Z,17.49
2018-05-17T23:47:56.548Z,17.36
2018-05-17T23:50:24.394Z,17.36
2018-05-17T23:52:51.890Z,17.19
2018-05-17T23:55:19.398Z,16.95
2018-05-17T23:57:46.917Z,16.86
